Terminal Aerodrome Forecast
Issued by NWS

Home | Current Version | Previous Version | Text Only | Print | Product List | Glossary On
Versions: 1 2 3 4 5 6 7 8 9 10 11 12 13 14 15 16 17 18 19 20 21 22 23 24 25
000
FTUS45 KABQ 261755 AAA
TAFROW
TAF AMD
KROW 261755Z 2618/2718 02011KT P6SM VCSH OVC025
      TEMPO 2620/2623 VRB15G25KT 6SM -TSRA BKN025CB
     FM270200 04010KT P6SM SCT005 OVC015
     FM270500 02011KT P6SM SCT002 OVC005
     FM271400 03011KT 6SM -RA BR SCT002 OVC005=

USA.gov is the U.S. government's official web portal to all federal, state and local government web resources and services.